Time,TemperatureF,DewpointF,PressureIn,WindDirection,WindDirectionDegrees,WindSpeedMPH,WindSpeedGustMPH,Humidity,HourlyPrecipIn,Conditions,Clouds,dailyrainin,SoftwareType,DateUTC
2013-04-24 08:13:00,43.9,41.0,30.07,NE,40,0.0,-999.0,89,-99.99,,,0.00,weatherlink.com 1.10,2013-04-24 12:13:00,
2013-04-24 08:16:00,44.2,41.0,30.07,NE,40,0.0,-999.0,88,-99.99,,,0.00,weatherlink.com 1.10,2013-04-24 12:16:00,
2013-04-24 08:31:00,46.0,41.0,30.06,NE,36,0.0,-999.0,84,-99.99,,,0.00,weatherlink.com 1.10,2013-04-24 12:31:00,
2013-04-24 08:46:00,47.5,42.0,30.05,NE,37,0.0,-999.0,81,-99.99,,,0.00,weatherlink.com 1.10,2013-04-24 12:46:00,
2013-04-24 09:01:00,49.2,43.0,30.05,NNW,345,0.0,-999.0,79,-99.99,,,0.00,weatherlink.com 1.10,2013-04-24 13:01:00,
2013-04-24 09:16:00,50.8,43.0,30.05,West,267,0.0,-999.0,75,-99.99,,,0.00,weatherlink.com 1.10,2013-04-24 13:16:00,
2013-04-24 09:32:00,52.7,44.0,30.04,NW,309,0.0,-999.0,72,-99.99,,,0.00,weatherlink.com 1.10,2013-04-24 13:32:00,
2013-04-24 09:47:00,55.2,46.0,30.04,NNW,343,2.0,-999.0,70,-99.99,,,0.00,weatherlink.com 1.10,2013-04-24 13:47:00,
2013-04-24 10:02:00,56.4,45.0,30.03,NNW,340,0.0,-999.0,67,-99.99,,,0.00,weatherlink.com 1.10,2013-04-24 14:02:00,
2013-04-24 10:17:00,57.3,45.0,30.03,NW,306,0.0,-999.0,64,-99.99,,,0.00,weatherlink.com 1.10,2013-04-24 14:17:00,
2013-04-24 10:32:00,57.9,45.0,30.02,WNW,300,0.0,-999.0,63,-99.99,,,0.00,weatherlink.com 1.10,2013-04-24 14:32:00,
2013-04-24 10:47:00,59.6,45.0,30.01,WSW,250,0.0,-999.0,60,-99.99,,,0.00,weatherlink.com 1.10,2013-04-24 14:47:00,
2013-04-24 11:02:00,60.0,45.0,30.01,SSE,157,2.0,-999.0,59,-99.99,,,0.00,weatherlink.com 1.10,2013-04-24 15:02:00,
2013-04-24 11:17:00,60.4,45.0,30.01,WSW,250,1.0,-999.0,58,-99.99,,,0.00,weatherlink.com 1.10,2013-04-24 15:17:00,
2013-04-24 11:33:00,61.2,46.0,30.00,South,184,2.0,-999.0,57,-99.99,,,0.00,weatherlink.com 1.10,2013-04-24 15:33:00,
2013-04-24 11:48:00,61.6,46.0,29.99,South,177,0.0,-999.0,56,-99.99,,,0.00,weatherlink.com 1.10,2013-04-24 15:48:00,
2013-04-24 12:03:00,62.5,46.0,29.98,SSW,201,4.0,-999.0,55,-99.99,,,0.00,weatherlink.com 1.10,2013-04-24 16:03:00,
2013-04-24 12:18:00,64.1,46.0,29.97,SW,217,1.0,-999.0,53,-99.99,,,0.00,weatherlink.com 1.10,2013-04-24 16:18:00,
2013-04-24 12:33:00,63.9,47.0,29.96,SSW,209,0.0,-999.0,54,-99.99,,,0.00,weatherlink.com 1.10,2013-04-24 16:33:00,
2013-04-24 12:48:00,65.4,47.0,29.95,South,170,2.0,-999.0,52,-99.99,,,0.00,weatherlink.com 1.10,2013-04-24 16:48:00,
2013-04-24 13:03:00,66.8,48.0,29.93,SSW,205,2.0,-999.0,51,-99.99,,,0.00,weatherlink.com 1.10,2013-04-24 17:03:00,
2013-04-24 13:18:00,67.6,48.0,29.92,SSW,198,4.0,-999.0,50,-99.99,,,0.00,weatherlink.com 1.10,2013-04-24 17:18:00,
2013-04-24 13:34:00,68.4,48.0,29.92,WSW,238,0.0,-999.0,49,-99.99,,,0.00,weatherlink.com 1.10,2013-04-24 17:34:00,
2013-04-24 13:49:00,69.1,49.0,29.91,South,190,5.0,-999.0,49,-99.99,,,0.00,weatherlink.com 1.10,2013-04-24 17:49:00,
2013-04-24 14:04:00,69.9,50.0,29.91,West,259,1.0,-999.0,49,-99.99,,,0.00,weatherlink.com 1.10,2013-04-24 18:04:00,
2013-04-24 14:19:00,71.1,51.0,29.91,WNW,295,0.0,-999.0,49,-99.99,,,0.00,weatherlink.com 1.10,2013-04-24 18:19:00,
2013-04-24 14:34:00,71.5,51.0,29.90,SSE,163,4.0,-999.0,48,-99.99,,,0.00,weatherlink.com 1.10,2013-04-24 18:34:00,
2013-04-24 14:49:00,72.5,51.0,29.88,South,191,1.0,-999.0,47,-99.99,,,0.00,weatherlink.com 1.10,2013-04-24 18:49:00,
2013-04-24 15:04:00,71.6,51.0,29.87,SSE,161,0.0,-999.0,48,-99.99,,,0.00,weatherlink.com 1.10,2013-04-24 19:04:00,
2013-04-24 15:19:00,71.3,50.0,29.87,SW,216,2.0,-999.0,48,-99.99,,,0.00,weatherlink.com 1.10,2013-04-24 19:19:00,
2013-04-24 15:34:00,71.4,51.0,29.85,South,181,1.0,-999.0,49,-99.99,,,0.00,weatherlink.com 1.10,2013-04-24 19:34:00,
2013-04-24 15:49:00,70.8,51.0,29.86,South,173,0.0,-999.0,50,-99.99,,,0.00,weatherlink.com 1.10,2013-04-24 19:49:00,
2013-04-24 16:05:00,70.2,51.0,29.86,SSW,193,3.0,-999.0,50,-99.99,,,0.00,weatherlink.com 1.10,2013-04-24 20:05:00,
2013-04-24 16:20:00,69.6,51.0,29.86,SW,227,1.0,-999.0,51,-99.99,,,0.00,weatherlink.com 1.10,2013-04-24 20:20:00,
2013-04-24 16:35:00,69.0,51.0,29.86,SSW,198,5.0,-999.0,53,-99.99,,,0.00,weatherlink.com 1.10,2013-04-24 20:35:00,
2013-04-24 16:50:00,69.0,52.0,29.86,South,175,1.0,-999.0,54,-99.99,,,0.00,weatherlink.com 1.10,2013-04-24 20:50:00,
2013-04-24 17:05:00,67.8,51.0,29.86,South,175,4.0,-999.0,55,-99.99,,,0.00,weatherlink.com 1.10,2013-04-24 21:05:00,
2013-04-24 17:20:00,67.8,51.0,29.86,South,178,0.0,-999.0,56,-99.99,,,0.00,weatherlink.com 1.10,2013-04-24 21:20:00,
2013-04-24 17:35:00,67.0,51.0,29.86,SSE,156,4.0,-999.0,57,-99.99,,,0.00,weatherlink.com 1.10,2013-04-24 21:35:00,
2013-04-24 17:50:00,65.6,51.0,29.86,SSE,165,1.0,-999.0,60,-99.99,,,0.00,weatherlink.com 1.10,2013-04-24 21:50:00,
2013-04-24 18:05:00,64.1,51.0,29.85,South,182,2.0,-999.0,62,-99.99,,,0.00,weatherlink.com 1.10,2013-04-24 22:05:00,
2013-04-24 18:20:00,62.4,51.0,29.84,SSE,167,0.0,-999.0,66,-99.99,,,0.00,weatherlink.com 1.10,2013-04-24 22:20:00,
2013-04-24 18:35:00,61.3,51.0,29.83,SSE,166,0.0,-999.0,68,-99.99,,,0.00,weatherlink.com 1.10,2013-04-24 22:35:00,
2013-04-24 18:50:00,60.3,50.0,29.84,SSW,194,0.0,-999.0,70,-99.99,,,0.00,weatherlink.com 1.10,2013-04-24 22:50:00,
2013-04-24 19:05:00,59.1,50.0,29.84,SSE,159,0.0,-999.0,72,-99.99,,,0.00,weatherlink.com 1.10,2013-04-24 23:05:00,
2013-04-24 19:21:00,57.3,49.0,29.84,SSE,159,2.0,-999.0,75,-99.99,,,0.00,weatherlink.com 1.10,2013-04-24 23:21:00,
2013-04-24 19:36:00,55.7,49.0,29.84,South,181,0.0,-999.0,78,-99.99,,,0.00,weatherlink.com 1.10,2013-04-24 23:36:00,
2013-04-24 19:51:00,54.5,49.0,29.86,South,182,5.0,-999.0,81,-99.99,,,0.00,weatherlink.com 1.10,2013-04-24 23:51:00,
2013-04-24 20:06:00,53.3,48.0,29.87,South,187,0.0,-999.0,83,-99.99,,,0.00,weatherlink.com 1.10,2013-04-25 00:06:00,
2013-04-24 20:21:00,52.7,48.0,29.88,South,185,3.0,-999.0,85,-99.99,,,0.00,weatherlink.com 1.10,2013-04-25 00:21:00,
2013-04-24 20:36:00,52.3,48.0,29.88,South,171,2.0,-999.0,86,-99.99,,,0.00,weatherlink.com 1.10,2013-04-25 00:36:00,
2013-04-24 20:51:00,52.3,49.0,29.88,South,186,0.0,-999.0,87,-99.99,,,0.00,weatherlink.com 1.10,2013-04-25 00:51:00,
2013-04-24 21:06:00,52.3,49.0,29.88,South,178,0.0,-999.0,87,-99.99,,,0.00,weatherlink.com 1.10,2013-04-25 01:06:00,
2013-04-24 21:21:00,52.3,49.0,29.88,SSE,164,0.0,-999.0,88,-99.99,,,0.00,weatherlink.com 1.10,2013-04-25 01:21:00,